Larvik — C6VC2 — position and weather

sailwx.info

Track history (hours):
 
Tides and Currents Weather Stations Pressure Air Temp Water Temp Dewpoint Dewpoint Depression Visibility Wind Speed Wind Dir Waves Ship Positions

Larvik

Last reported at 2014-Oct-14 17:31 UTC. Time now 2014-Oct-21 15:18 UTC.
Position N 31°40' W 118°59'.

Length 214 m; draft 8 m.

Type: Tanker. MMSI: 308371000.

Date/timePositionNaut miles runAvg speedWind from/ knotsBaromVisibWave heightAir tempDewpointWater temp
2014-Oct-14 17:31N 31°40' W 118°59'3912.5
2014-Oct-14 14:25N 32°05' W 119°34'1012.2
2014-Oct-14 13:34N 32°13' W 119°41'5012.4
2014-Oct-14 09:33N 32°53' W 120°16'1212.0
2014-Oct-14 08:33N 33°03' W 120°24'1212.2
2014-Oct-14 07:34N 33°13' W 120°33'1312.7
2014-Oct-14 06:33N 33°24' W 120°42'1312.9
2014-Oct-14 05:33N 33°34' W 120°51'1312.6
2014-Oct-14 04:34N 33°44' W 120°60'1312.7
2014-Oct-14 03:33N 33°54' W 121°09'1412.5
2014-Oct-14 02:28N 34°05' W 121°19'1212.8
2014-Oct-14 01:33N 34°15' W 121°27'1312.5
2014-Oct-14 00:33N 34°25' W 121°35'1312.8
2014-Oct-13 23:33N 34°35' W 121°45'1312.8
2014-Oct-13 22:33N 34°46' W 121°54'1312.6
2014-Oct-13 21:33N 34°56' W 122°03'1212.4
2014-Oct-13 20:34N 35°06' W 122°12'1212.4
2014-Oct-13 19:34N 35°16' W 122°21'1212.0
2014-Oct-13 18:33N 35°26' W 122°29'1111.2
2014-Oct-13 17:33N 35°35' W 122°37'1111.5
2014-Oct-13 16:33N 35°44' W 122°46'1212.0
2014-Oct-13 15:33N 35°54' W 122°54'1111.4
2014-Oct-13 14:34N 36°04' W 123°01'1211.9
2014-Oct-13 13:33N 36°16' W 123°02'1212.1
2014-Oct-13 12:34N 36°28' W 123°04'1312.7
2014-Oct-13 11:34N 36°40' W 123°05'1312.6
2014-Oct-13 10:34N 36°53' W 123°06'1212.4
2014-Oct-13 09:34N 37°05' W 123°08'1212.3
2014-Oct-13 08:33N 37°18' W 123°10'1212.1
2014-Oct-13 07:33N 37°30' W 123°10'1111.1
2014-Oct-13 06:34N 37°37' W 122°60'1010.2
2014-Oct-13 05:33N 37°42' W 122°49'9 8.7
2014-Oct-13 04:33N 37°46' W 122°39'1212.2
2014-Oct-13 03:33N 37°51' W 122°25'1211.8
2014-Oct-13 02:34N 38°02' W 122°21'1110.4
2014-Oct-13 01:33N 38°02' W 122°08'0 0.0
2014-Oct-11 12:03N 38°03' W 122°08'1 1.8
2014-Oct-11 11:33N 38°02' W 122°09'8 7.7
2014-Oct-11 10:33N 38°03' W 122°18'10 9.6
2014-Oct-11 09:33N 37°56' W 122°27'9 9.4
2014-Oct-11 08:34N 37°48' W 122°22'2 2.2
2014-Oct-11 07:33N 37°45' W 122°21'0 0.0
2014-Oct-11 06:33N 37°45' W 122°21'0 0.1
2014-Oct-11 05:33N 37°45' W 122°21'0 0.1
2014-Oct-11 04:33N 37°46' W 122°21'0 0.2
2014-Oct-11 03:33N 37°46' W 122°21'0 0.0
2014-Oct-11 02:33N 37°46' W 122°21'0 0.0
2014-Oct-11 01:33N 37°46' W 122°21'0 0.0
2014-Oct-11 00:33N 37°46' W 122°21'0 0.0
2014-Oct-10 23:33N 37°46' W 122°21'0 0.0
2014-Oct-10 22:33N 37°46' W 122°21'0 0.1
2014-Oct-10 21:33N 37°46' W 122°21'0 0.2
2014-Oct-10 20:33N 37°45' W 122°21'0 0.1
2014-Oct-10 19:33N 37°45' W 122°21'0 0.0
2014-Oct-10 18:33N 37°45' W 122°21'0 0.0
2014-Oct-10 17:33N 37°45' W 122°21'0 0.0
2014-Oct-10 16:33N 37°45' W 122°21'0 0.2
2014-Oct-10 15:33N 37°46' W 122°21'0 0.1
2014-Oct-10 14:33N 37°46' W 122°21'0 0.0
2014-Oct-10 13:33N 37°46' W 122°21'0 0.0
2014-Oct-10 12:33N 37°46' W 122°21'0 0.0
2014-Oct-10 11:33N 37°46' W 122°21'0 0.0
2014-Oct-10 10:30N 37°46' W 122°21'0 0.3
2014-Oct-10 09:33N 37°45' W 122°21'0 0.0
2014-Oct-10 08:33N 37°45' W 122°21'0 0.0
2014-Oct-10 07:33N 37°45' W 122°21'0 0.0
2014-Oct-10 06:33N 37°45' W 122°21'0 0.0
2014-Oct-10 05:33N 37°45' W 122°21'0 0.1
2014-Oct-10 04:33N 37°45' W 122°21'0 0.2
2014-Oct-10 03:33N 37°46' W 122°21'0 0.1
2014-Oct-10 02:33N 37°46' W 122°21'0 0.0
2014-Oct-10 01:33N 37°46' W 122°21'0 0.0
2014-Oct-10 00:33N 37°46' W 122°21'0 0.1
2014-Oct-09 23:33N 37°46' W 122°21'0 0.1
2014-Oct-09 22:33N 37°46' W 122°21'0 0.1
2014-Oct-09 21:33N 37°46' W 122°21'0 0.2
2014-Oct-09 20:33N 37°45' W 122°21'0 0.0
2014-Oct-09 19:33N 37°45' W 122°21'0 0.0
2014-Oct-09 18:33N 37°45' W 122°21'0 0.1
2014-Oct-09 17:33N 37°45' W 122°21'3 3.3
2014-Oct-09 16:33N 37°48' W 122°23'1111.4
2014-Oct-09 15:33N 37°46' W 122°37'1010.4
2014-Oct-09 14:33N 37°40' W 122°47'1211.7
2014-Oct-09 13:33N 37°34' W 122°60'1111.5
2014-Oct-09 12:33N 37°24' W 123°08'9 9.2
2014-Oct-09 11:33N 37°15' W 123°08'9 9.0
2014-Oct-09 10:33N 37°09' W 122°59'7 7.1
2014-Oct-09 09:33N 37°05' W 122°52'2 1.6
2014-Oct-09 08:33N 37°06' W 122°54'1 1.3
2014-Oct-09 07:33N 37°06' W 122°55'1 1.2
2014-Oct-09 06:33N 37°07' W 122°56'1 1.2
2014-Oct-09 05:33N 37°07' W 122°58'1 1.0
2014-Oct-09 04:33N 37°08' W 122°59'1 0.8
2014-Oct-09 03:33N 37°08' W 122°60'1 0.9
2014-Oct-09 02:33N 37°09' W 123°01'1 1.1
2014-Oct-09 01:33N 37°09' W 123°02'1 1.3
2014-Oct-09 00:33N 37°10' W 123°03'1 1.4
2014-Oct-08 23:33N 37°12' W 123°04'1 1.4
2014-Oct-08 22:33N 37°13' W 123°05'1 1.2
2014-Oct-08 21:33N 37°13' W 123°06'1 1.1
2014-Oct-08 20:33N 37°14' W 123°07'1 1.0
2014-Oct-08 19:33N 37°15' W 123°08'1 1.0
2014-Oct-08 18:33N 37°15' W 123°09'1 0.7
2014-Oct-08 17:33N 37°16' W 123°10'1 0.6
2014-Oct-08 16:33N 37°16' W 123°10'2 2.4
2014-Oct-08 15:33N 37°14' W 123°09'1010.4
2014-Oct-08 14:33N 37°07' W 122°59'4 4.0
2014-Oct-08 13:33N 37°04' W 122°56'1 1.2
2014-Oct-08 12:33N 37°05' W 122°56'1 1.3
2014-Oct-08 11:33N 37°06' W 122°57'1 1.4
2014-Oct-08 10:33N 37°08' W 122°58'1 1.4
2014-Oct-08 09:33N 37°09' W 122°59'1 1.5
2014-Oct-08 08:33N 37°10' W 123°00'1 1.4
2014-Oct-08 07:33N 37°10' W 123°02'1 1.2
2014-Oct-08 06:33N 37°11' W 123°03'1 0.9
2014-Oct-08 05:33N 37°11' W 123°04'1 0.9
2014-Oct-08 04:33N 37°12' W 123°05'0 0.5
2014-Oct-08 03:33N 37°12' W 123°06'1 0.6
2014-Oct-08 02:33N 37°13' W 123°06'1 0.7
2014-Oct-08 01:33N 37°13' W 123°06'1 0.8
2014-Oct-08 00:34N 37°14' W 123°07'1 1.0
2014-Oct-07 23:33N 37°15' W 123°08'1 1.1
2014-Oct-07 22:33N 37°16' W 123°08'3 2.9
2014-Oct-07 21:33N 37°14' W 123°05'9 9.2
2014-Oct-07 20:33N 37°08' W 122°57'1 0.7
2014-Oct-07 19:33N 37°08' W 122°57'1 0.8
2014-Oct-07 18:33N 37°09' W 122°58'1 0.9
2014-Oct-07 17:33N 37°09' W 122°59'1 0.8
2014-Oct-07 16:33N 37°10' W 122°60'0 0.5
2014-Oct-07 15:33N 37°10' W 123°00'0 0.2
2014-Oct-07 14:33N 37°10' W 123°01'0 0.4
2014-Oct-07 13:33N 37°10' W 123°01'1 0.5
2014-Oct-07 12:33N 37°10' W 123°02'1 0.7
2014-Oct-07 11:33N 37°11' W 123°02'1 0.8
2014-Oct-07 10:33N 37°12' W 123°03'1 0.8
2014-Oct-07 09:33N 37°12' W 123°03'1 0.9
2014-Oct-07 08:33N 37°13' W 123°04'1 0.9
2014-Oct-07 07:33N 37°13' W 123°05'1 0.9
2014-Oct-07 06:33N 37°14' W 123°06'1 0.7
2014-Oct-07 05:33N 37°14' W 123°07'1 0.6
2014-Oct-07 04:33N 37°14' W 123°08'0 0.5
2014-Oct-07 03:33N 37°14' W 123°08'0 0.5
2014-Oct-07 02:33N 37°14' W 123°09'1 0.6
2014-Oct-07 01:33N 37°15' W 123°09'1 0.7
2014-Oct-07 00:33N 37°15' W 123°10'1 0.7
2014-Oct-06 23:33N 37°16' W 123°10'3 3.5
2014-Oct-06 22:33N 37°13' W 123°09'2 1.7
2014-Oct-06 21:33N 37°12' W 123°07'9 9.2
2014-Oct-06 20:33N 37°07' W 122°57'1 0.7
2014-Oct-06 19:33N 37°07' W 122°58'1 0.9
2014-Oct-06 18:33N 37°08' W 122°59'1 0.8
2014-Oct-06 17:33N 37°09' W 122°59'1 0.7
2014-Oct-06 16:33N 37°09' W 123°00'0 0.5
2014-Oct-06 15:33N 37°09' W 123°01'0 0.4
2014-Oct-06 14:33N 37°09' W 123°01'0 0.5
2014-Oct-06 13:33N 37°09' W 123°02'0 0.2
2014-Oct-06 12:33N 37°09' W 123°02'0 0.4
2014-Oct-06 11:33N 37°10' W 123°02'1 0.5
2014-Oct-06 10:33N 37°10' W 123°03'1 0.8
2014-Oct-06 09:33N 37°11' W 123°03'1 0.8
2014-Oct-06 08:33N 37°11' W 123°04'1 0.8
2014-Oct-06 07:33N 37°12' W 123°04'1 0.7
2014-Oct-06 06:33N 37°13' W 123°05'1 0.6
2014-Oct-06 05:33N 37°13' W 123°06'1 0.6
2014-Oct-06 04:33N 37°13' W 123°06'1 0.6
2014-Oct-06 03:33N 37°14' W 123°07'0 0.4
2014-Oct-06 02:33N 37°14' W 123°07'1 0.6
2014-Oct-06 01:33N 37°14' W 123°08'1 0.6
2014-Oct-06 00:33N 37°14' W 123°09'1 0.6
2014-Oct-05 23:33N 37°15' W 123°09'1 0.7
2014-Oct-05 22:33N 37°16' W 123°10'1 0.6
2014-Oct-05 21:33N 37°16' W 123°10'1 0.7
2014-Oct-05 20:33N 37°17' W 123°11'2 1.5
2014-Oct-05 19:33N 37°16' W 123°09'6 5.8
2014-Oct-05 18:33N 37°13' W 123°03'1 0.7
2014-Oct-05 17:33N 37°13' W 123°03'1 0.6
2014-Oct-05 16:33N 37°14' W 123°04'1 0.6
2014-Oct-05 15:33N 37°14' W 123°05'1 0.5
2014-Oct-05 14:33N 37°14' W 123°05'0 0.4
2014-Oct-05 13:33N 37°14' W 123°06'0 0.3
2014-Oct-05 12:33N 37°14' W 123°06'0 0.2
2014-Oct-05 11:33N 37°14' W 123°06'0 0.5
2014-Oct-05 10:33N 37°15' W 123°07'1 0.5
2014-Oct-05 09:33N 37°15' W 123°07'1 0.7
2014-Oct-05 08:33N 37°16' W 123°08'1 0.8
2014-Oct-05 07:33N 37°16' W 123°08'1 0.9
2014-Oct-05 06:33N 37°17' W 123°09'1 0.8
2014-Oct-05 05:33N 37°17' W 123°10'3 2.9
2014-Oct-05 04:33N 37°14' W 123°10'1110.9
2014-Oct-05 03:33N 37°04' W 123°07'1212.3
2014-Oct-05 02:33N 36°51' W 123°06'1212.2
2014-Oct-05 01:33N 36°39' W 123°05'1212.3
2014-Oct-05 00:33N 36°27' W 123°03'1212.3
2014-Oct-04 23:33N 36°15' W 123°02'1413.6
2014-Oct-04 22:33N 36°01' W 123°01'1414.1
2014-Oct-04 21:34N 35°50' W 122°51'1413.5
2014-Oct-04 20:34N 35°39' W 122°41'1312.9
2014-Oct-04 19:33N 35°28' W 122°32'1312.8
2014-Oct-04 18:33N 35°18' W 122°22'1312.9
2014-Oct-04 17:33N 35°07' W 122°13'  
Track history (hours):
 
Tides and Currents Weather Stations Pressure Air Temp Water Temp Dewpoint Dewpoint Depression Visibility Wind Speed Wind Dir Waves Ship Positions

Larvik

Last reported at 2014-Oct-14 17:31 UTC. Time now 2014-Oct-21 15:18 UTC.
Position N 31°40' W 118°59'.

Length 214 m; draft 8 m.

Type: Tanker. MMSI: 308371000.

Date/timePositionNaut miles runAvg speedWind from/ knotsBaromVisibWave heightAir tempDewpointWater temp
2014-Oct-14 17:31N 31°40' W 118°59'3912.5
2014-Oct-14 14:25N 32°05' W 119°34'1012.2
2014-Oct-14 13:34N 32°13' W 119°41'5012.4
2014-Oct-14 09:33N 32°53' W 120°16'1212.0
2014-Oct-14 08:33N 33°03' W 120°24'1212.2
2014-Oct-14 07:34N 33°13' W 120°33'1312.7
2014-Oct-14 06:33N 33°24' W 120°42'1312.9
2014-Oct-14 05:33N 33°34' W 120°51'1312.6
2014-Oct-14 04:34N 33°44' W 120°60'1312.7
2014-Oct-14 03:33N 33°54' W 121°09'1412.5
2014-Oct-14 02:28N 34°05' W 121°19'1212.8
2014-Oct-14 01:33N 34°15' W 121°27'1312.5
2014-Oct-14 00:33N 34°25' W 121°35'1312.8
2014-Oct-13 23:33N 34°35' W 121°45'1312.8
2014-Oct-13 22:33N 34°46' W 121°54'1312.6
2014-Oct-13 21:33N 34°56' W 122°03'1212.4
2014-Oct-13 20:34N 35°06' W 122°12'1212.4
2014-Oct-13 19:34N 35°16' W 122°21'1212.0
2014-Oct-13 18:33N 35°26' W 122°29'1111.2
2014-Oct-13 17:33N 35°35' W 122°37'1111.5
2014-Oct-13 16:33N 35°44' W 122°46'1212.0
2014-Oct-13 15:33N 35°54' W 122°54'1111.4
2014-Oct-13 14:34N 36°04' W 123°01'1211.9
2014-Oct-13 13:33N 36°16' W 123°02'1212.1
2014-Oct-13 12:34N 36°28' W 123°04'1312.7
2014-Oct-13 11:34N 36°40' W 123°05'1312.6
2014-Oct-13 10:34N 36°53' W 123°06'1212.4
2014-Oct-13 09:34N 37°05' W 123°08'1212.3
2014-Oct-13 08:33N 37°18' W 123°10'1212.1
2014-Oct-13 07:33N 37°30' W 123°10'1111.1
2014-Oct-13 06:34N 37°37' W 122°60'1010.2
2014-Oct-13 05:33N 37°42' W 122°49'9 8.7
2014-Oct-13 04:33N 37°46' W 122°39'1212.2
2014-Oct-13 03:33N 37°51' W 122°25'1211.8
2014-Oct-13 02:34N 38°02' W 122°21'1110.4
2014-Oct-13 01:33N 38°02' W 122°08'0 0.0
2014-Oct-11 12:03N 38°03' W 122°08'1 1.8
2014-Oct-11 11:33N 38°02' W 122°09'8 7.7
2014-Oct-11 10:33N 38°03' W 122°18'10 9.6
2014-Oct-11 09:33N 37°56' W 122°27'9 9.4
2014-Oct-11 08:34N 37°48' W 122°22'2 2.2
2014-Oct-11 07:33N 37°45' W 122°21'0 0.0
2014-Oct-11 06:33N 37°45' W 122°21'0 0.1
2014-Oct-11 05:33N 37°45' W 122°21'0 0.1
2014-Oct-11 04:33N 37°46' W 122°21'0 0.2
2014-Oct-11 03:33N 37°46' W 122°21'0 0.0
2014-Oct-11 02:33N 37°46' W 122°21'0 0.0
2014-Oct-11 01:33N 37°46' W 122°21'0 0.0
2014-Oct-11 00:33N 37°46' W 122°21'0 0.0
2014-Oct-10 23:33N 37°46' W 122°21'0 0.0
2014-Oct-10 22:33N 37°46' W 122°21'0 0.1
2014-Oct-10 21:33N 37°46' W 122°21'0 0.2
2014-Oct-10 20:33N 37°45' W 122°21'0 0.1
2014-Oct-10 19:33N 37°45' W 122°21'0 0.0
2014-Oct-10 18:33N 37°45' W 122°21'0 0.0
2014-Oct-10 17:33N 37°45' W 122°21'0 0.0
2014-Oct-10 16:33N 37°45' W 122°21'0 0.2
2014-Oct-10 15:33N 37°46' W 122°21'0 0.1
2014-Oct-10 14:33N 37°46' W 122°21'0 0.0
2014-Oct-10 13:33N 37°46' W 122°21'0 0.0
2014-Oct-10 12:33N 37°46' W 122°21'0 0.0
2014-Oct-10 11:33N 37°46' W 122°21'0 0.0
2014-Oct-10 10:30N 37°46' W 122°21'0 0.3
2014-Oct-10 09:33N 37°45' W 122°21'0 0.0
2014-Oct-10 08:33N 37°45' W 122°21'0 0.0
2014-Oct-10 07:33N 37°45' W 122°21'0 0.0
2014-Oct-10 06:33N 37°45' W 122°21'0 0.0
2014-Oct-10 05:33N 37°45' W 122°21'0 0.1
2014-Oct-10 04:33N 37°45' W 122°21'0 0.2
2014-Oct-10 03:33N 37°46' W 122°21'0 0.1
2014-Oct-10 02:33N 37°46' W 122°21'0 0.0
2014-Oct-10 01:33N 37°46' W 122°21'0 0.0
2014-Oct-10 00:33N 37°46' W 122°21'0 0.1
2014-Oct-09 23:33N 37°46' W 122°21'0 0.1
2014-Oct-09 22:33N 37°46' W 122°21'0 0.1
2014-Oct-09 21:33N 37°46' W 122°21'0 0.2
2014-Oct-09 20:33N 37°45' W 122°21'0 0.0
2014-Oct-09 19:33N 37°45' W 122°21'0 0.0
2014-Oct-09 18:33N 37°45' W 122°21'0 0.1
2014-Oct-09 17:33N 37°45' W 122°21'3 3.3
2014-Oct-09 16:33N 37°48' W 122°23'1111.4
2014-Oct-09 15:33N 37°46' W 122°37'1010.4
2014-Oct-09 14:33N 37°40' W 122°47'1211.7
2014-Oct-09 13:33N 37°34' W 122°60'1111.5
2014-Oct-09 12:33N 37°24' W 123°08'9 9.2
2014-Oct-09 11:33N 37°15' W 123°08'9 9.0
2014-Oct-09 10:33N 37°09' W 122°59'7 7.1
2014-Oct-09 09:33N 37°05' W 122°52'2 1.6
2014-Oct-09 08:33N 37°06' W 122°54'1 1.3
2014-Oct-09 07:33N 37°06' W 122°55'1 1.2
2014-Oct-09 06:33N 37°07' W 122°56'1 1.2
2014-Oct-09 05:33N 37°07' W 122°58'1 1.0
2014-Oct-09 04:33N 37°08' W 122°59'1 0.8
2014-Oct-09 03:33N 37°08' W 122°60'1 0.9
2014-Oct-09 02:33N 37°09' W 123°01'1 1.1
2014-Oct-09 01:33N 37°09' W 123°02'1 1.3
2014-Oct-09 00:33N 37°10' W 123°03'1 1.4
2014-Oct-08 23:33N 37°12' W 123°04'1 1.4
2014-Oct-08 22:33N 37°13' W 123°05'1 1.2
2014-Oct-08 21:33N 37°13' W 123°06'1 1.1
2014-Oct-08 20:33N 37°14' W 123°07'1 1.0
2014-Oct-08 19:33N 37°15' W 123°08'1 1.0
2014-Oct-08 18:33N 37°15' W 123°09'1 0.7
2014-Oct-08 17:33N 37°16' W 123°10'1 0.6
2014-Oct-08 16:33N 37°16' W 123°10'2 2.4
2014-Oct-08 15:33N 37°14' W 123°09'1010.4
2014-Oct-08 14:33N 37°07' W 122°59'4 4.0
2014-Oct-08 13:33N 37°04' W 122°56'1 1.2
2014-Oct-08 12:33N 37°05' W 122°56'1 1.3
2014-Oct-08 11:33N 37°06' W 122°57'1 1.4
2014-Oct-08 10:33N 37°08' W 122°58'1 1.4
2014-Oct-08 09:33N 37°09' W 122°59'1 1.5
2014-Oct-08 08:33N 37°10' W 123°00'1 1.4
2014-Oct-08 07:33N 37°10' W 123°02'1 1.2
2014-Oct-08 06:33N 37°11' W 123°03'1 0.9
2014-Oct-08 05:33N 37°11' W 123°04'1 0.9
2014-Oct-08 04:33N 37°12' W 123°05'0 0.5
2014-Oct-08 03:33N 37°12' W 123°06'1 0.6
2014-Oct-08 02:33N 37°13' W 123°06'1 0.7
2014-Oct-08 01:33N 37°13' W 123°06'1 0.8
2014-Oct-08 00:34N 37°14' W 123°07'1 1.0
2014-Oct-07 23:33N 37°15' W 123°08'1 1.1
2014-Oct-07 22:33N 37°16' W 123°08'3 2.9
2014-Oct-07 21:33N 37°14' W 123°05'9 9.2
2014-Oct-07 20:33N 37°08' W 122°57'1 0.7
2014-Oct-07 19:33N 37°08' W 122°57'1 0.8
2014-Oct-07 18:33N 37°09' W 122°58'1 0.9
2014-Oct-07 17:33N 37°09' W 122°59'1 0.8
2014-Oct-07 16:33N 37°10' W 122°60'0 0.5
2014-Oct-07 15:33N 37°10' W 123°00'0 0.2
2014-Oct-07 14:33N 37°10' W 123°01'0 0.4
2014-Oct-07 13:33N 37°10' W 123°01'1 0.5
2014-Oct-07 12:33N 37°10' W 123°02'1 0.7
2014-Oct-07 11:33N 37°11' W 123°02'1 0.8
2014-Oct-07 10:33N 37°12' W 123°03'1 0.8
2014-Oct-07 09:33N 37°12' W 123°03'1 0.9
2014-Oct-07 08:33N 37°13' W 123°04'1 0.9
2014-Oct-07 07:33N 37°13' W 123°05'1 0.9
2014-Oct-07 06:33N 37°14' W 123°06'1 0.7
2014-Oct-07 05:33N 37°14' W 123°07'1 0.6
2014-Oct-07 04:33N 37°14' W 123°08'0 0.5
2014-Oct-07 03:33N 37°14' W 123°08'0 0.5
2014-Oct-07 02:33N 37°14' W 123°09'1 0.6
2014-Oct-07 01:33N 37°15' W 123°09'1 0.7
2014-Oct-07 00:33N 37°15' W 123°10'1 0.7
2014-Oct-06 23:33N 37°16' W 123°10'3 3.5
2014-Oct-06 22:33N 37°13' W 123°09'2 1.7
2014-Oct-06 21:33N 37°12' W 123°07'9 9.2
2014-Oct-06 20:33N 37°07' W 122°57'1 0.7
2014-Oct-06 19:33N 37°07' W 122°58'1 0.9
2014-Oct-06 18:33N 37°08' W 122°59'1 0.8
2014-Oct-06 17:33N 37°09' W 122°59'1 0.7
2014-Oct-06 16:33N 37°09' W 123°00'0 0.5
2014-Oct-06 15:33N 37°09' W 123°01'0 0.4
2014-Oct-06 14:33N 37°09' W 123°01'0 0.5
2014-Oct-06 13:33N 37°09' W 123°02'0 0.2
2014-Oct-06 12:33N 37°09' W 123°02'0 0.4
2014-Oct-06 11:33N 37°10' W 123°02'1 0.5
2014-Oct-06 10:33N 37°10' W 123°03'1 0.8
2014-Oct-06 09:33N 37°11' W 123°03'1 0.8
2014-Oct-06 08:33N 37°11' W 123°04'1 0.8
2014-Oct-06 07:33N 37°12' W 123°04'1 0.7
2014-Oct-06 06:33N 37°13' W 123°05'1 0.6
2014-Oct-06 05:33N 37°13' W 123°06'1 0.6
2014-Oct-06 04:33N 37°13' W 123°06'1 0.6
2014-Oct-06 03:33N 37°14' W 123°07'0 0.4
2014-Oct-06 02:33N 37°14' W 123°07'1 0.6
2014-Oct-06 01:33N 37°14' W 123°08'1 0.6
2014-Oct-06 00:33N 37°14' W 123°09'1 0.6
2014-Oct-05 23:33N 37°15' W 123°09'1 0.7
2014-Oct-05 22:33N 37°16' W 123°10'1 0.6
2014-Oct-05 21:33N 37°16' W 123°10'1 0.7
2014-Oct-05 20:33N 37°17' W 123°11'2 1.5
2014-Oct-05 19:33N 37°16' W 123°09'6 5.8
2014-Oct-05 18:33N 37°13' W 123°03'1 0.7
2014-Oct-05 17:33N 37°13' W 123°03'1 0.6
2014-Oct-05 16:33N 37°14' W 123°04'1 0.6
2014-Oct-05 15:33N 37°14' W 123°05'1 0.5
2014-Oct-05 14:33N 37°14' W 123°05'0 0.4
2014-Oct-05 13:33N 37°14' W 123°06'0 0.3
2014-Oct-05 12:33N 37°14' W 123°06'0 0.2
2014-Oct-05 11:33N 37°14' W 123°06'0 0.5
2014-Oct-05 10:33N 37°15' W 123°07'1 0.5
2014-Oct-05 09:33N 37°15' W 123°07'1 0.7
2014-Oct-05 08:33N 37°16' W 123°08'1 0.8
2014-Oct-05 07:33N 37°16' W 123°08'1 0.9
2014-Oct-05 06:33N 37°17' W 123°09'1 0.8
2014-Oct-05 05:33N 37°17' W 123°10'3 2.9
2014-Oct-05 04:33N 37°14' W 123°10'1110.9
2014-Oct-05 03:33N 37°04' W 123°07'1212.3
2014-Oct-05 02:33N 36°51' W 123°06'1212.2
2014-Oct-05 01:33N 36°39' W 123°05'1212.3
2014-Oct-05 00:33N 36°27' W 123°03'1212.3
2014-Oct-04 23:33N 36°15' W 123°02'1413.6
2014-Oct-04 22:33N 36°01' W 123°01'1414.1
2014-Oct-04 21:34N 35°50' W 122°51'1413.5
2014-Oct-04 20:34N 35°39' W 122°41'1312.9
2014-Oct-04 19:33N 35°28' W 122°32'1312.8
2014-Oct-04 18:33N 35°18' W 122°22'1312.9
2014-Oct-04 17:33N 35°07' W 122°13'  

Dump ship's entire track history